Time;durP1;ratioP1;P1;durP2;ratioP2;P2;SDS_P1;SDS_P2;PMS_P1;PMS_P2;Temp;Humidity;BMP_temperature;BMP_pressure;BME280_temperature;BME280_humidity;BME280_pressure;Samples;Min_cycle;Max_cycle;Signal;HPM_P1;HPM_P2
2023/03/29 00:01:43;;;;;;;;;;;;;;;;;;4976108;28;7120;-62
2023/03/29 00:07:12;;;;;;;;;;;;;;;;;;4976081;28;6688;-62
2023/03/29 00:09:38;;;;;;;;;;;;;;;;;;4975739;28;7206;-62
2023/03/29 00:31:12;;;;;;;;;;;;;;;;;;4979983;28;6922;-62
2023/03/29 00:33:38;;;;;;;;;;;;;;;;;;4980337;28;7343;-62
2023/03/29 00:36:04;;;;;;;;;;;;;;;;;;4979455;28;7271;-62
2023/03/29 00:38:31;;;;;;;;;;;;;;;;;;4979862;28;7046;-62
2023/03/29 00:40:57;;;;;;;;;;;;;;;;;;4980543;28;7424;-62
2023/03/29 00:46:27;;;;;;;;;;;;;;;;;;4979375;28;6928;-62
2023/03/29 00:48:56;;;;;;;;;;;;;;;;;;4979453;28;7199;-62
2023/03/29 00:51:26;;;;;;;;;;;;;;;;;;4980408;28;7010;-62
2023/03/29 00:53:55;;;;;;;;;;;;;;;;;;4979543;28;7323;-62
2023/03/29 00:56:25;;;;;;;;;;;;;;;;;;4979036;28;6917;-62
2023/03/29 01:02:00;;;;;;;;;;;;;;;;;;4979377;28;6678;-62
2023/03/29 01:04:28;;;;;;;;;;;;;;;;;;4980358;28;7115;-62
2023/03/29 01:07:06;;;;;;;;;;;;;;;;;;4978993;28;7199;-62
2023/03/29 01:09:34;;;;;;;;;;;;;;;;;;5220657;23;7053;-66
2023/03/29 01:12:05;;;;;;;;;;;;;;;;;;4981599;28;6828;-68
2023/03/29 01:14:39;;;;;;;;;;;;;;;;;;4998397;28;8489;-68
2023/03/29 01:17:05;;;;;;;;;;;;;;;;;;5000337;28;8549;-68
2023/03/29 01:19:36;;;;;;;;;;;;;;;;;;4997330;28;8438;-68
2023/03/29 01:22:21;;;;;;;;;;;;;;;;;;4997406;28;8578;-68
2023/03/29 01:27:56;;;;;;;;;;;;;;;;;;4998035;28;7036;-68
2023/03/29 01:36:37;;;;;;;;;;;;;;;;;;4919310;29;6934;-68
2023/03/29 01:39:05;;;;;;;;;;;;;;;;;;4919023;29;7171;-68
2023/03/29 01:41:38;;;;;;;;;;;;;;;;;;4919141;29;7118;-68
2023/03/29 01:44:13;;;;;;;;;;;;;;;;;;4920090;29;7090;-68
2023/03/29 01:46:41;;;;;;;;;;;;;;;;;;4919122;29;7039;-68
2023/03/29 01:49:14;;;;;;;;;;;;;;;;;;4918932;29;7394;-68
2023/03/29 01:51:48;;;;;;;;;;;;;;;;;;4919008;29;7436;-68
2023/03/29 01:54:16;;;;;;;;;;;;;;;;;;4918839;29;7131;-68
2023/03/29 01:56:45;;;;;;;;;;;;;;;;;;4918774;29;7038;-68
2023/03/29 01:59:14;;;;;;;;;;;;;;;;;;4918759;29;7203;-68
2023/03/29 02:01:47;;;;;;;;;;;;;;;;;;4918646;29;6967;-68
2023/03/29 02:04:26;;;;;;;;;;;;;;;;;;4919625;29;7091;-68
2023/03/29 02:06:54;;;;;;;;;;;;;;;;;;4918703;29;7202;-68
2023/03/29 02:15:18;;;;;;;;;;;;;;;;;;4997689;28;7037;-68
2023/03/29 02:17:45;;;;;;;;;;;;;;;;;;4997131;28;7004;-68
2023/03/29 02:23:20;;;;;;;;;;;;;;;;;;4997472;28;6930;-68
2023/03/29 02:25:49;;;;;;;;;;;;;;;;;;4997015;28;7131;-69
2023/03/29 02:28:23;;;;;;;;;;;;;;;;;;4997050;28;7114;-69
2023/03/29 02:31:03;;;;;;;;;;;;;;;;;;5117529;23;7408;-68
2023/03/29 02:33:47;;;;;;;;;;;;;;;;;;5056464;28;7413;-65
2023/03/29 02:42:23;;;;;;;;;;;;;;;;;;5036153;28;6684;-65
2023/03/29 02:44:51;;;;;;;;;;;;;;;;;;5035992;28;7152;-64
2023/03/29 02:47:41;;;;;;;;;;;;;;;;;;5036245;28;6960;-64
2023/03/29 02:50:07;;;;;;;;;;;;;;;;;;5035590;28;7176;-65
2023/03/29 02:52:35;;;;;;;;;;;;;;;;;;5036188;28;7128;-65
2023/03/29 02:58:12;;;;;;;;;;;;;;;;;;5035790;28;6687;-65
2023/03/29 03:00:41;;;;;;;;;;;;;;;;;;5035993;28;7150;-65
2023/03/29 03:03:09;;;;;;;;;;;;;;;;;;5035969;28;6956;-65
2023/03/29 03:05:42;;;;;;;;;;;;;;;;;;5035848;28;7197;-65
2023/03/29 03:08:08;;;;;;;;;;;;;;;;;;5035922;28;6937;-65
2023/03/29 03:10:34;;;;;;;;;;;;;;;;;;5035752;28;7458;-64
2023/03/29 03:16:02;;;;;;;;;;;;;;;;;;5035466;28;6664;-65
2023/03/29 03:21:31;;;;;;;;;;;;;;;;;;5035392;28;7382;-65
2023/03/29 03:23:56;;;;;;;;;;;;;;;;;;5035447;28;6928;-65
2023/03/29 03:26:28;;;;;;;;;;;;;;;;;;5035332;28;7100;-65
2023/03/29 03:28:55;;;;;;;;;;;;;;;;;;5017763;28;7244;-65
2023/03/29 03:37:14;;;;;;;;;;;;;;;;;;5035531;28;6966;-65
2023/03/29 03:39:40;;;;;;;;;;;;;;;;;;5035295;28;6954;-65
2023/03/29 03:42:29;;;;;;;;;;;;;;;;;;5035235;28;7144;-64
2023/03/29 03:44:55;;;;;;;;;;;;;;;;;;5034905;28;7011;-65
2023/03/29 03:47:21;;;;;;;;;;;;;;;;;;5035124;28;7140;-65
2023/03/29 03:52:50;;;;;;;;;;;;;;;;;;5034841;28;6954;-65
2023/03/29 03:55:16;;;;;;;;;;;;;;;;;;5034817;28;7214;-65
2023/03/29 04:00:49;;;;;;;;;;;;;;;;;;5034689;28;6925;-65
2023/03/29 04:06:18;;;;;;;;;;;;;;;;;;5034443;28;7061;-65
2023/03/29 04:08:44;;;;;;;;;;;;;;;;;;5034897;28;7114;-66
2023/03/29 04:11:39;;;;;;;;;;;;;;;;;;5035365;28;7138;-66
2023/03/29 04:14:05;;;;;;;;;;;;;;;;;;5034551;28;7173;-66
2023/03/29 04:19:24;;;;;;;;;;;;;;;;;;5035126;28;6967;-66
2023/03/29 04:21:50;;;;;;;;;;;;;;;;;;5034404;28;6921;-66
2023/03/29 04:24:16;;;;;;;;;;;;;;;;;;5034839;28;7400;-66
2023/03/29 04:26:42;;;;;;;;;;;;;;;;;;5034589;28;6890;-66
2023/03/29 04:29:07;;;;;;;;;;;;;;;;;;5034692;28;7157;-66
2023/03/29 04:31:50;;;;;;;;;;;;;;;;;;5034612;28;7115;-66
2023/03/29 04:34:16;;;;;;;;;;;;;;;;;;5035164;28;7042;-66
2023/03/29 04:36:42;;;;;;;;;;;;;;;;;;5095128;23;7162;-66
2023/03/29 04:45:16;;;;;;;;;;;;;;;;;;5034455;28;6682;-65
2023/03/29 04:47:44;;;;;;;;;;;;;;;;;;5025241;28;7131;-66
2023/03/29 04:50:30;;;;;;;;;;;;;;;;;;5014657;28;7111;-66
2023/03/29 04:52:58;;;;;;;;;;;;;;;;;;5014394;28;6997;-66
2023/03/29 04:55:25;;;;;;;;;;;;;;;;;;5014601;28;6950;-65
2023/03/29 04:57:52;;;;;;;;;;;;;;;;;;5014677;28;7247;-65
2023/03/29 05:10:01;;;;;;;;;;;;;;;;;;5014467;28;6954;-63
2023/03/29 05:12:27;;;;;;;;;;;;;;;;;;5014220;28;7360;-65
2023/03/29 05:18:01;;;;;;;;;;;;;;;;;;5037620;28;7075;-65
2023/03/29 05:20:27;;;;;;;;;;;;;;;;;;5037900;28;7123;-65
2023/03/29 05:28:23;;;;;;;;;;;;;;;;;;4977247;28;7119;-66
2023/03/29 05:42:18;;;;;;;;;;;;;;;;;;4997498;28;6909;-69
2023/03/29 05:44:43;;;;;;;;;;;;;;;;;;4994774;28;7148;-71
2023/03/29 05:47:09;;;;;;;;;;;;;;;;;;4997876;28;7180;-69
2023/03/29 05:52:39;;;;;;;;;;;;;;;;;;4997726;28;6823;-69
2023/03/29 05:55:06;;;;;;;;;;;;;;;;;;4998082;28;7115;-69
2023/03/29 06:03:51;;;;;;;;;;;;;;;;;;4996532;28;6682;-69
2023/03/29 06:06:17;;;;;;;;;;;;;;;;;;4992873;28;7411;-69
2023/03/29 06:30:08;;;;;;;;;;;;;;;;;;4996915;28;6914;-69
2023/03/29 06:32:34;;;;;;;;;;;;;;;;;;4996967;28;7447;-69
2023/03/29 06:41:18;;;;;;;;;;;;;;;;;;4996525;28;7029;-69
2023/03/29 06:43:44;;;;;;;;;;;;;;;;;;4996601;28;7782;-69
2023/03/29 06:46:13;;;;;;;;;;;;;;;;;;4996642;28;7212;-69
2023/03/29 06:48:56;;;;;;;;;;;;;;;;;;4996476;28;7185;-69
2023/03/29 06:51:22;;;;;;;;;;;;;;;;;;4996951;28;7088;-69
2023/03/29 06:53:47;;;;;;;;;;;;;;;;;;4996520;28;7270;-69
2023/03/29 06:59:24;;;;;;;;;;;;;;;;;;4996439;28;7808;-69
2023/03/29 07:01:52;;;;;;;;;;;;;;;;;;4996562;28;7048;-69
2023/03/29 07:07:53;;;;;;;;;;;;;;;;;;4996490;28;7061;-69
2023/03/29 07:10:20;;;;;;;;;;;;;;;;;;4996499;28;7416;-69
2023/03/29 07:15:50;;;;;;;;;;;;;;;;;;4996386;28;6707;-71
2023/03/29 07:27:21;;;;;;;;;;;;;;;;;;4996310;28;6934;-71
2023/03/29 07:32:51;;;;;;;;;;;;;;;;;;4995941;28;7422;-71
2023/03/29 07:35:17;;;;;;;;;;;;;;;;;;4994016;28;7082;-71
2023/03/29 07:37:43;;;;;;;;;;;;;;;;;;4995720;28;7118;-71
2023/03/29 07:43:12;;;;;;;;;;;;;;;;;;4995700;28;6980;-70
2023/03/29 07:45:41;;;;;;;;;;;;;;;;;;5284798;23;7988;-67
2023/03/29 07:48:09;;;;;;;;;;;;;;;;;;5034225;28;8467;-65
2023/03/29 07:50:35;;;;;;;;;;;;;;;;;;5017367;28;8963;-65
2023/03/29 07:53:03;;;;;;;;;;;;;;;;;;5017708;28;8421;-66
2023/03/29 08:01:34;;;;;;;;;;;;;;;;;;5034783;28;6707;-66
2023/03/29 08:04:00;;;;;;;;;;;;;;;;;;5035108;28;6837;-65
2023/03/29 08:06:29;;;;;;;;;;;;;;;;;;5034479;28;7191;-65
2023/03/29 08:08:55;;;;;;;;;;;;;;;;;;5034881;28;8081;-65
2023/03/29 08:11:23;;;;;;;;;;;;;;;;;;5034647;28;7039;-65
2023/03/29 08:13:50;;;;;;;;;;;;;;;;;;5035176;28;7207;-65
2023/03/29 08:16:16;;;;;;;;;;;;;;;;;;5034428;28;7208;-65
2023/03/29 08:21:44;;;;;;;;;;;;;;;;;;5034755;28;6978;-65
2023/03/29 08:27:13;;;;;;;;;;;;;;;;;;5034394;28;6926;-65
2023/03/29 08:29:45;;;;;;;;;;;;;;;;;;5034727;28;7247;-65
2023/03/29 08:32:11;;;;;;;;;;;;;;;;;;5034713;28;6961;-66
2023/03/29 08:34:37;;;;;;;;;;;;;;;;;;5034348;28;7162;-66
2023/03/29 08:37:03;;;;;;;;;;;;;;;;;;5034140;28;6915;-66
2023/03/29 08:39:30;;;;;;;;;;;;;;;;;;5034579;28;6958;-67
2023/03/29 08:48:18;;;;;;;;;;;;;;;;;;4922553;29;6977;-65
2023/03/29 08:50:51;;;;;;;;;;;;;;;;;;4901174;29;6985;-66
2023/03/29 08:53:24;;;;;;;;;;;;;;;;;;4916660;29;7417;-65
2023/03/29 08:55:57;;;;;;;;;;;;;;;;;;4901100;29;6873;-65
2023/03/29 08:58:51;;;;;;;;;;;;;;;;;;4901085;29;7381;-66
2023/03/29 09:06:49;;;;;;;;;;;;;;;;;;5035585;28;7094;-68
2023/03/29 09:09:19;;;;;;;;;;;;;;;;;;5197316;23;8389;-68
2023/03/29 09:11:48;;;;;;;;;;;;;;;;;;5012256;28;7272;-64
2023/03/29 09:14:40;;;;;;;;;;;;;;;;;;5013631;28;7201;-64
2023/03/29 09:17:06;;;;;;;;;;;;;;;;;;4998228;28;7016;-64
2023/03/29 09:22:31;;;;;;;;;;;;;;;;;;5000804;28;7240;-64
2023/03/29 09:25:24;;;;;;;;;;;;;;;;;;4998313;28;7403;-64
2023/03/29 09:27:52;;;;;;;;;;;;;;;;;;4998142;28;7366;-64
2023/03/29 09:30:45;;;;;;;;;;;;;;;;;;5010334;28;7236;-64
2023/03/29 09:33:36;;;;;;;;;;;;;;;;;;5000539;28;8395;-64
2023/03/29 09:36:04;;;;;;;;;;;;;;;;;;5018021;28;7029;-64
2023/03/29 09:38:49;;;;;;;;;;;;;;;;;;5017740;28;7171;-64
2023/03/29 09:41:40;;;;;;;;;;;;;;;;;;5011975;28;7408;-64
2023/03/29 09:44:27;;;;;;;;;;;;;;;;;;5017110;28;7392;-64
2023/03/29 09:47:01;;;;;;;;;;;;;;;;;;5017548;28;7169;-64
2023/03/29 09:52:58;;;;;;;;;;;;;;;;;;5017112;28;6716;-65
2023/03/29 09:55:30;;;;;;;;;;;;;;;;;;5017155;28;7027;-64
2023/03/29 09:58:01;;;;;;;;;;;;;;;;;;5017433;28;7223;-64
2023/03/29 10:00:27;;;;;;;;;;;;;;;;;;5015832;28;7234;-64
2023/03/29 10:06:30;;;;;;;;;;;;;;;;;;5017608;28;6966;-64
2023/03/29 10:12:05;;;;;;;;;;;;;;;;;;5022285;28;6987;-64
2023/03/29 10:14:33;;;;;;;;;;;;;;;;;;5018939;28;7440;-64
2023/03/29 10:20:17;;;;;;;;;;;;;;;;;;4997220;28;6993;-64
2023/03/29 10:22:48;;;;;;;;;;;;;;;;;;4999876;28;7091;-64
2023/03/29 10:25:16;;;;;;;;;;;;;;;;;;5015423;28;9256;-64
2023/03/29 10:27:43;;;;;;;;;;;;;;;;;;5016640;28;7179;-64
2023/03/29 10:30:22;;;;;;;;;;;;;;;;;;4999565;28;6968;-64
2023/03/29 10:32:55;;;;;;;;;;;;;;;;;;4996881;28;7099;-64
2023/03/29 10:35:27;;;;;;;;;;;;;;;;;;4996902;28;7085;-64
2023/03/29 10:37:56;;;;;;;;;;;;;;;;;;5034061;23;7417;-68
2023/03/29 10:46:22;;;;;;;;;;;;;;;;;;4997283;28;6914;-67
2023/03/29 10:48:49;;;;;;;;;;;;;;;;;;4978592;28;6947;-68
2023/03/29 10:51:17;;;;;;;;;;;;;;;;;;4977405;28;7185;-68
2023/03/29 10:53:42;;;;;;;;;;;;;;;;;;4977321;28;7083;-68
2023/03/29 10:59:23;;;;;;;;;;;;;;;;;;4977023;28;6886;-68
2023/03/29 11:01:58;;;;;;;;;;;;;;;;;;4977216;28;7048;-68
2023/03/29 11:04:41;;;;;;;;;;;;;;;;;;4977873;28;7132;-68
2023/03/29 11:07:21;;;;;;;;;;;;;;;;;;4977120;28;7203;-68
2023/03/29 11:10:05;;;;;;;;;;;;;;;;;;4976778;28;7232;-68
2023/03/29 11:15:36;;;;;;;;;;;;;;;;;;4976639;28;6855;-68
2023/03/29 11:18:05;;;;;;;;;;;;;;;;;;4976865;28;7147;-68
2023/03/29 11:20:37;;;;;;;;;;;;;;;;;;4975524;28;7085;-68
2023/03/29 11:23:38;;;;;;;;;;;;;;;;;;4976806;28;7242;-68
2023/03/29 11:29:10;;;;;;;;;;;;;;;;;;4976750;28;6972;-68
2023/03/29 11:31:43;;;;;;;;;;;;;;;;;;4976366;28;6961;-68
2023/03/29 11:34:28;;;;;;;;;;;;;;;;;;4975861;28;7048;-68
2023/03/29 11:37:25;;;;;;;;;;;;;;;;;;4976360;28;7067;-68
2023/03/29 11:40:03;;;;;;;;;;;;;;;;;;4923566;28;7390;-68
2023/03/29 11:42:33;;;;;;;;;;;;;;;;;;4976452;28;7122;-68
2023/03/29 11:45:01;;;;;;;;;;;;;;;;;;4976521;28;7176;-68
2023/03/29 11:47:46;;;;;;;;;;;;;;;;;;4976376;28;7032;-68
2023/03/29 11:50:14;;;;;;;;;;;;;;;;;;4976058;28;7031;-68
2023/03/29 11:52:47;;;;;;;;;;;;;;;;;;4976965;28;7239;-68
2023/03/29 12:01:25;;;;;;;;;;;;;;;;;;4976568;28;6946;-68
2023/03/29 12:04:01;;;;;;;;;;;;;;;;;;4976017;28;7215;-68
2023/03/29 12:06:31;;;;;;;;;;;;;;;;;;4976335;28;7195;-68
2023/03/29 12:09:12;;;;;;;;;;;;;;;;;;4976340;28;7040;-68
2023/03/29 12:11:53;;;;;;;;;;;;;;;;;;4975915;28;7201;-68
2023/03/29 12:14:44;;;;;;;;;;;;;;;;;;4976330;28;7077;-68
2023/03/29 12:17:14;;;;;;;;;;;;;;;;;;4959016;28;8461;-68
2023/03/29 12:19:45;;;;;;;;;;;;;;;;;;4976803;28;6827;-68
2023/03/29 12:22:10;;;;;;;;;;;;;;;;;;4975991;28;7245;-68
2023/03/29 12:24:40;;;;;;;;;;;;;;;;;;4974998;28;7188;-68
2023/03/29 12:27:28;;;;;;;;;;;;;;;;;;4975809;28;7032;-68
2023/03/29 12:30:09;;;;;;;;;;;;;;;;;;4975795;28;7176;-68
2023/03/29 12:35:45;;;;;;;;;;;;;;;;;;4879091;29;6942;-68
2023/03/29 12:41:16;;;;;;;;;;;;;;;;;;4879067;29;6985;-68
2023/03/29 12:43:42;;;;;;;;;;;;;;;;;;4879234;29;7025;-68
2023/03/29 12:49:25;;;;;;;;;;;;;;;;;;4879060;29;6746;-68
2023/03/29 12:51:51;;;;;;;;;;;;;;;;;;4878861;29;6981;-68
2023/03/29 12:54:26;;;;;;;;;;;;;;;;;;4878194;29;7433;-68
2023/03/29 13:03:39;;;;;;;;;;;;;;;;;;4878880;29;6977;-68
2023/03/29 13:06:08;;;;;;;;;;;;;;;;;;4901582;29;7278;-69
2023/03/29 13:08:55;;;;;;;;;;;;;;;;;;4916097;29;7470;-68
2023/03/29 13:11:28;;;;;;;;;;;;;;;;;;4925550;28;7150;-69
2023/03/29 13:13:54;;;;;;;;;;;;;;;;;;4993806;28;8640;-69
2023/03/29 13:16:35;;;;;;;;;;;;;;;;;;4994193;28;7136;-68
2023/03/29 13:19:05;;;;;;;;;;;;;;;;;;4994763;28;7503;-68
2023/03/29 13:31:00;;;;;;;;;;;;;;;;;;4975491;28;7368;-68
2023/03/29 13:33:38;;;;;;;;;;;;;;;;;;4975220;28;7054;-68
2023/03/29 13:36:31;;;;;;;;;;;;;;;;;;4978290;28;7114;-68
2023/03/29 13:39:01;;;;;;;;;;;;;;;;;;4979334;28;7051;-68
2023/03/29 13:53:39;;;;;;;;;;;;;;;;;;4959337;28;6967;-68
2023/03/29 13:56:17;;;;;;;;;;;;;;;;;;4967221;28;6983;-68
2023/03/29 13:58:42;;;;;;;;;;;;;;;;;;4978152;28;7127;-68
2023/03/29 14:07:25;;;;;;;;;;;;;;;;;;4977684;28;6979;-68
2023/03/29 14:09:52;;;;;;;;;;;;;;;;;;4977764;28;7167;-68
2023/03/29 14:12:41;;;;;;;;;;;;;;;;;;4978164;28;7620;-68
2023/03/29 14:15:28;;;;;;;;;;;;;;;;;;4977465;28;7001;-68
2023/03/29 14:17:55;;;;;;;;;;;;;;;;;;4982177;28;7143;-68
2023/03/29 14:20:53;;;;;;;;;;;;;;;;;;4989737;28;7206;-68
2023/03/29 14:23:29;;;;;;;;;;;;;;;;;;4977794;28;7045;-68
2023/03/29 14:28:57;;;;;;;;;;;;;;;;;;4978242;28;8927;-68
2023/03/29 14:31:25;;;;;;;;;;;;;;;;;;4977674;28;7254;-68
2023/03/29 14:33:52;;;;;;;;;;;;;;;;;;4977522;28;6954;-68
2023/03/29 14:39:19;;;;;;;;;;;;;;;;;;4977580;28;6797;-68
2023/03/29 14:44:39;;;;;;;;;;;;;;;;;;4974316;28;6985;-68
2023/03/29 14:47:05;;;;;;;;;;;;;;;;;;4957411;28;7118;-68
2023/03/29 14:49:31;;;;;;;;;;;;;;;;;;4958138;28;6837;-68
2023/03/29 14:52:29;;;;;;;;;;;;;;;;;;4967376;28;6920;-68
2023/03/29 14:54:58;;;;;;;;;;;;;;;;;;4976973;28;7069;-68
2023/03/29 15:00:51;;;;;;;;;;;;;;;;;;4976980;28;6688;-68
2023/03/29 15:03:18;;;;;;;;;;;;;;;;;;4977519;28;7255;-68
2023/03/29 15:05:50;;;;;;;;;;;;;;;;;;4977224;28;7102;-68
2023/03/29 15:08:29;;;;;;;;;;;;;;;;;;4977034;28;7315;-68
2023/03/29 15:11:29;;;;;;;;;;;;;;;;;;4976877;28;7160;-68
2023/03/29 15:14:07;;;;;;;;;;;;;;;;;;4977019;28;7637;-68
2023/03/29 15:16:38;;;;;;;;;;;;;;;;;;4976773;28;7862;-68
2023/03/29 15:19:03;;;;;;;;;;;;;;;;;;4976797;28;7234;-68
2023/03/29 15:21:34;;;;;;;;;;;;;;;;;;4976996;28;6871;-68
2023/03/29 15:24:02;;;;;;;;;;;;;;;;;;4976811;28;7151;-68
2023/03/29 15:26:35;;;;;;;;;;;;;;;;;;4974577;28;7516;-68
2023/03/29 15:29:06;;;;;;;;;;;;;;;;;;4976447;28;7141;-68
2023/03/29 15:31:44;;;;;;;;;;;;;;;;;;4957002;28;7258;-68
2023/03/29 15:34:12;;;;;;;;;;;;;;;;;;4990456;28;7027;-68
2023/03/29 15:39:47;;;;;;;;;;;;;;;;;;4968905;28;6923;-68
2023/03/29 15:42:12;;;;;;;;;;;;;;;;;;4976195;28;7185;-68
2023/03/29 15:44:38;;;;;;;;;;;;;;;;;;4976223;28;7121;-68
2023/03/29 15:47:08;;;;;;;;;;;;;;;;;;4972275;28;7316;-68
2023/03/29 15:49:34;;;;;;;;;;;;;;;;;;4975976;28;7243;-68
2023/03/29 15:55:03;;;;;;;;;;;;;;;;;;4976073;28;6904;-68
2023/03/29 15:57:30;;;;;;;;;;;;;;;;;;4975820;28;7294;-68
2023/03/29 15:59:56;;;;;;;;;;;;;;;;;;4972010;28;7029;-68
2023/03/29 16:02:23;;;;;;;;;;;;;;;;;;4957006;28;7204;-68
2023/03/29 16:08:17;;;;;;;;;;;;;;;;;;4956601;28;7461;-69
2023/03/29 16:13:45;;;;;;;;;;;;;;;;;;4956571;28;6707;-69
2023/03/29 16:19:14;;;;;;;;;;;;;;;;;;4956475;28;6929;-69
2023/03/29 16:21:41;;;;;;;;;;;;;;;;;;4956726;28;7204;-69
2023/03/29 16:27:10;;;;;;;;;;;;;;;;;;4956496;29;6794;-69
2023/03/29 16:29:36;;;;;;;;;;;;;;;;;;4956317;29;7929;-69
2023/03/29 16:32:02;;;;;;;;;;;;;;;;;;4956641;29;7927;-69
2023/03/29 16:43:37;;;;;;;;;;;;;;;;;;4975704;28;6683;-69
2023/03/29 16:46:32;;;;;;;;;;;;;;;;;;4975837;28;7141;-69
2023/03/29 16:48:58;;;;;;;;;;;;;;;;;;4975666;28;7170;-69
2023/03/29 16:51:24;;;;;;;;;;;;;;;;;;4976279;28;7024;-69
2023/03/29 16:59:55;;;;;;;;;;;;;;;;;;4975246;28;6818;-69
2023/03/29 17:02:31;;;;;;;;;;;;;;;;;;4975499;28;7890;-69
2023/03/29 17:04:57;;;;;;;;;;;;;;;;;;4975595;28;7044;-69
2023/03/29 17:07:22;;;;;;;;;;;;;;;;;;4975260;28;6949;-69
2023/03/29 17:09:49;;;;;;;;;;;;;;;;;;4976991;28;7103;-65
2023/03/29 17:15:18;;;;;;;;;;;;;;;;;;4979095;28;6679;-65
2023/03/29 17:17:43;;;;;;;;;;;;;;;;;;4978983;28;6953;-66
2023/03/29 17:20:12;;;;;;;;;;;;;;;;;;4978718;28;7053;-65
2023/03/29 17:22:39;;;;;;;;;;;;;;;;;;4979154;28;7071;-66
2023/03/29 17:25:06;;;;;;;;;;;;;;;;;;4979045;28;7372;-66
2023/03/29 17:27:32;;;;;;;;;;;;;;;;;;4961846;28;8735;-65
2023/03/29 17:29:58;;;;;;;;;;;;;;;;;;4978837;28;7100;-66
2023/03/29 17:32:24;;;;;;;;;;;;;;;;;;4978955;28;6943;-66
2023/03/29 17:38:02;;;;;;;;;;;;;;;;;;4978444;28;7002;-65
2023/03/29 17:40:28;;;;;;;;;;;;;;;;;;4978222;28;8206;-65
2023/03/29 17:42:54;;;;;;;;;;;;;;;;;;4978991;28;7049;-66
2023/03/29 17:45:19;;;;;;;;;;;;;;;;;;4978152;28;6949;-65
2023/03/29 17:50:48;;;;;;;;;;;;;;;;;;4978514;28;6697;-66
2023/03/29 17:56:10;;;;;;;;;;;;;;;;;;4978988;28;7042;-65
2023/03/29 17:58:35;;;;;;;;;;;;;;;;;;4960493;28;7159;-66
2023/03/29 18:01:18;;;;;;;;;;;;;;;;;;4959055;28;7292;-66
2023/03/29 18:03:46;;;;;;;;;;;;;;;;;;4958759;28;7214;-66
2023/03/29 18:09:14;;;;;;;;;;;;;;;;;;4961385;28;6976;-66
2023/03/29 18:14:43;;;;;;;;;;;;;;;;;;4978140;28;6685;-66
2023/03/29 18:17:09;;;;;;;;;;;;;;;;;;4970214;28;7341;-66
2023/03/29 18:19:35;;;;;;;;;;;;;;;;;;4958372;28;7606;-66
2023/03/29 18:22:01;;;;;;;;;;;;;;;;;;4957668;28;7108;-66
2023/03/29 18:24:48;;;;;;;;;;;;;;;;;;4958787;28;7383;-66
2023/03/29 18:27:14;;;;;;;;;;;;;;;;;;4958276;28;7293;-66
2023/03/29 18:29:40;;;;;;;;;;;;;;;;;;4958531;28;7190;-66
2023/03/29 18:32:06;;;;;;;;;;;;;;;;;;4958582;28;7331;-66
2023/03/29 18:34:32;;;;;;;;;;;;;;;;;;4974684;28;7384;-66
2023/03/29 18:36:57;;;;;;;;;;;;;;;;;;4958145;28;7230;-66
2023/03/29 18:39:23;;;;;;;;;;;;;;;;;;4958083;28;7577;-65
2023/03/29 18:42:22;;;;;;;;;;;;;;;;;;4958094;28;6946;-66
2023/03/29 18:44:47;;;;;;;;;;;;;;;;;;4957969;28;6969;-66
2023/03/29 18:47:13;;;;;;;;;;;;;;;;;;4957772;28;7198;-66
2023/03/29 18:49:39;;;;;;;;;;;;;;;;;;4958233;28;7051;-66
2023/03/29 18:55:09;;;;;;;;;;;;;;;;;;4957893;28;6687;-66
2023/03/29 18:57:34;;;;;;;;;;;;;;;;;;4957866;28;7168;-66
2023/03/29 19:03:30;;;;;;;;;;;;;;;;;;4958043;28;6716;-66
2023/03/29 19:09:00;;;;;;;;;;;;;;;;;;4957924;28;7009;-66
2023/03/29 19:12:02;;;;;;;;;;;;;;;;;;4957831;28;7164;-66
2023/03/29 19:14:28;;;;;;;;;;;;;;;;;;4957911;28;7040;-67
2023/03/29 19:23:06;;;;;;;;;;;;;;;;;;4938221;29;6938;-66
2023/03/29 19:25:32;;;;;;;;;;;;;;;;;;4938365;29;7042;-66
2023/03/29 19:27:58;;;;;;;;;;;;;;;;;;4937955;29;7168;-66
2023/03/29 19:33:28;;;;;;;;;;;;;;;;;;4937650;29;6939;-66
2023/03/29 19:36:18;;;;;;;;;;;;;;;;;;4937976;29;6941;-66
2023/03/29 19:41:46;;;;;;;;;;;;;;;;;;4976208;28;6702;-66
2023/03/29 19:44:12;;;;;;;;;;;;;;;;;;4974765;28;7223;-66
2023/03/29 19:46:55;;;;;;;;;;;;;;;;;;4974801;28;7369;-66
2023/03/29 19:49:20;;;;;;;;;;;;;;;;;;4976224;28;7145;-66
2023/03/29 19:51:46;;;;;;;;;;;;;;;;;;4975898;28;7194;-66
2023/03/29 19:54:25;;;;;;;;;;;;;;;;;;4975774;28;6983;-66
2023/03/29 19:56:50;;;;;;;;;;;;;;;;;;4976063;28;7174;-66
2023/03/29 19:59:39;;;;;;;;;;;;;;;;;;4976019;28;7211;-67
2023/03/29 20:02:05;;;;;;;;;;;;;;;;;;4975904;28;6943;-66
2023/03/29 20:04:32;;;;;;;;;;;;;;;;;;4975802;28;7030;-66
2023/03/29 20:06:57;;;;;;;;;;;;;;;;;;4976152;28;7413;-66
2023/03/29 20:09:23;;;;;;;;;;;;;;;;;;4976078;28;7131;-66
2023/03/29 20:11:51;;;;;;;;;;;;;;;;;;4967450;28;7382;-66
2023/03/29 20:14:16;;;;;;;;;;;;;;;;;;4956913;28;6973;-66
2023/03/29 20:16:53;;;;;;;;;;;;;;;;;;4969322;28;6964;-66
2023/03/29 20:19:24;;;;;;;;;;;;;;;;;;4964144;28;7263;-66
2023/03/29 20:21:53;;;;;;;;;;;;;;;;;;4962043;28;7088;-66
2023/03/29 20:24:33;;;;;;;;;;;;;;;;;;4959113;28;7052;-66
2023/03/29 20:26:59;;;;;;;;;;;;;;;;;;4974802;28;7250;-66
2023/03/29 20:29:26;;;;;;;;;;;;;;;;;;4968130;28;6908;-66
2023/03/29 20:32:13;;;;;;;;;;;;;;;;;;4968087;28;7150;-66
2023/03/29 20:34:39;;;;;;;;;;;;;;;;;;4975734;28;7226;-66
2023/03/29 20:37:11;;;;;;;;;;;;;;;;;;4975034;28;7149;-66
2023/03/29 20:39:37;;;;;;;;;;;;;;;;;;4974986;28;7306;-66
2023/03/29 20:45:26;;;;;;;;;;;;;;;;;;4918889;29;7470;-66
2023/03/29 20:48:00;;;;;;;;;;;;;;;;;;4920267;29;7641;-66
2023/03/29 20:50:56;;;;;;;;;;;;;;;;;;4917443;29;7045;-66
2023/03/29 20:53:23;;;;;;;;;;;;;;;;;;4920289;29;7170;-66
2023/03/29 20:55:50;;;;;;;;;;;;;;;;;;4920028;29;7202;-66
2023/03/29 20:58:16;;;;;;;;;;;;;;;;;;4919833;29;6929;-67
2023/03/29 21:00:42;;;;;;;;;;;;;;;;;;4919979;29;6933;-66
2023/03/29 21:06:13;;;;;;;;;;;;;;;;;;4920175;29;6772;-66
2023/03/29 21:08:38;;;;;;;;;;;;;;;;;;4919782;29;6991;-66
2023/03/29 21:11:06;;;;;;;;;;;;;;;;;;4919909;29;7175;-67
2023/03/29 21:16:34;;;;;;;;;;;;;;;;;;4959179;28;6934;-69
2023/03/29 21:19:28;;;;;;;;;;;;;;;;;;4979628;28;7273;-67
2023/03/29 21:22:04;;;;;;;;;;;;;;;;;;4979133;28;7168;-67
2023/03/29 21:24:31;;;;;;;;;;;;;;;;;;4979118;28;7383;-67
2023/03/29 21:26:57;;;;;;;;;;;;;;;;;;4979477;28;6932;-67
2023/03/29 21:29:23;;;;;;;;;;;;;;;;;;4978655;28;7117;-67
2023/03/29 21:31:49;;;;;;;;;;;;;;;;;;4979582;28;7300;-67
2023/03/29 21:34:14;;;;;;;;;;;;;;;;;;4978658;28;7028;-67
2023/03/29 21:36:41;;;;;;;;;;;;;;;;;;4978968;28;7085;-67
2023/03/29 21:42:16;;;;;;;;;;;;;;;;;;4978555;28;6996;-67
2023/03/29 21:44:41;;;;;;;;;;;;;;;;;;4978348;28;7851;-67
2023/03/29 21:50:10;;;;;;;;;;;;;;;;;;4978280;28;7056;-67
2023/03/29 21:52:36;;;;;;;;;;;;;;;;;;4978678;28;7141;-67
2023/03/29 21:55:16;;;;;;;;;;;;;;;;;;4977869;28;7232;-66
2023/03/29 21:57:42;;;;;;;;;;;;;;;;;;4978412;28;7419;-67
2023/03/29 22:00:10;;;;;;;;;;;;;;;;;;4978408;28;7741;-67
2023/03/29 22:02:36;;;;;;;;;;;;;;;;;;4978913;28;7068;-66
2023/03/29 22:05:06;;;;;;;;;;;;;;;;;;4961008;28;8493;-66
2023/03/29 22:07:37;;;;;;;;;;;;;;;;;;4978251;28;7188;-67
2023/03/29 22:10:07;;;;;;;;;;;;;;;;;;4979514;28;6927;-66
2023/03/29 22:12:40;;;;;;;;;;;;;;;;;;4978195;28;6928;-67
2023/03/29 22:15:07;;;;;;;;;;;;;;;;;;4978373;28;7275;-67
2023/03/29 22:17:41;;;;;;;;;;;;;;;;;;4978073;28;7211;-67
2023/03/29 22:20:11;;;;;;;;;;;;;;;;;;4977955;28;7182;-66
2023/03/29 22:22:44;;;;;;;;;;;;;;;;;;4977827;28;7165;-66
2023/03/29 22:25:10;;;;;;;;;;;;;;;;;;4978267;28;6953;-67
2023/03/29 22:27:36;;;;;;;;;;;;;;;;;;4977963;28;7156;-66
2023/03/29 22:30:06;;;;;;;;;;;;;;;;;;4977911;28;7037;-67
2023/03/29 22:32:31;;;;;;;;;;;;;;;;;;4978017;28;7419;-66
2023/03/29 22:38:00;;;;;;;;;;;;;;;;;;4977166;28;6682;-66
2023/03/29 22:40:25;;;;;;;;;;;;;;;;;;4977689;28;7304;-67
2023/03/29 22:48:56;;;;;;;;;;;;;;;;;;4977364;28;6748;-67
2023/03/29 22:51:22;;;;;;;;;;;;;;;;;;4977611;28;7616;-67
2023/03/29 22:53:48;;;;;;;;;;;;;;;;;;4977447;28;6967;-67
2023/03/29 22:56:31;;;;;;;;;;;;;;;;;;4978304;28;7097;-67
2023/03/29 22:58:56;;;;;;;;;;;;;;;;;;5032090;23;7359;-67
2023/03/29 23:01:22;;;;;;;;;;;;;;;;;;4996653;28;7487;-67
2023/03/29 23:04:14;;;;;;;;;;;;;;;;;;4997004;28;7307;-66
2023/03/29 23:06:40;;;;;;;;;;;;;;;;;;4996967;28;7109;-62
2023/03/29 23:09:05;;;;;;;;;;;;;;;;;;4996135;28;7190;-66
2023/03/29 23:12:03;;;;;;;;;;;;;;;;;;4996486;28;7200;-67
2023/03/29 23:14:29;;;;;;;;;;;;;;;;;;4996215;28;8739;-67
2023/03/29 23:16:54;;;;;;;;;;;;;;;;;;4996375;28;7141;-67
2023/03/29 23:19:20;;;;;;;;;;;;;;;;;;4996167;28;7194;-67
2023/03/29 23:21:45;;;;;;;;;;;;;;;;;;4996423;28;7213;-67
2023/03/29 23:24:11;;;;;;;;;;;;;;;;;;4996340;28;7411;-67
2023/03/29 23:32:56;;;;;;;;;;;;;;;;;;4996300;28;7394;-66
2023/03/29 23:35:23;;;;;;;;;;;;;;;;;;4995778;28;7030;-67
2023/03/29 23:37:48;;;;;;;;;;;;;;;;;;4996770;28;7363;-67
2023/03/29 23:40:14;;;;;;;;;;;;;;;;;;4996207;28;6991;-67
2023/03/29 23:42:42;;;;;;;;;;;;;;;;;;4996012;28;7215;-67
2023/03/29 23:45:10;;;;;;;;;;;;;;;;;;4995942;28;7395;-67
2023/03/29 23:47:56;;;;;;;;;;;;;;;;;;4995452;28;7209;-67
2023/03/29 23:50:22;;;;;;;;;;;;;;;;;;4995595;28;6958;-67
2023/03/29 23:52:50;;;;;;;;;;;;;;;;;;4995579;28;7267;-67
2023/03/29 23:55:16;;;;;;;;;;;;;;;;;;4996034;28;7088;-67
2023/03/29 23:57:57;;;;;;;;;;;;;;;;;;4996200;28;7113;-66
